Time;durP1;ratioP1;P1;durP2;ratioP2;P2;SDS_P1;SDS_P2;PMS_P1;PMS_P2;Temp;Humidity;BMP_temperature;BMP_pressure;BME280_temperature;BME280_humidity;BME280_pressure;Samples;Min_cycle;Max_cycle;Signal;HPM_P1;HPM_P2
2021/01/07 00:01:42;;;;;;;;;;;0.50;99.90;;;;;;5072866;28;19947;-73
2021/01/07 00:04:08;;;;;;;;;;;0.60;99.90;;;;;;5072926;28;19909;-74
2021/01/07 00:06:34;;;;;;;;;;;0.60;99.90;;;;;;5072625;28;19934;-73
2021/01/07 00:08:59;;;;;;;;;;;0.60;99.90;;;;;;5072719;28;19956;-73
2021/01/07 00:11:24;;;;;;;;;;;0.60;99.90;;;;;;5072848;28;20311;-73
2021/01/07 00:13:50;;;;;;;;;;;0.60;99.90;;;;;;5071475;28;19909;-73
2021/01/07 00:16:15;;;;;;;;;;;0.60;99.90;;;;;;5054422;28;19917;-73
2021/01/07 00:18:41;;;;;;;;;;;0.70;99.90;;;;;;5052713;28;20378;-73
2021/01/07 00:21:07;;;;;;;;;;;0.70;99.90;;;;;;5052512;28;19912;-73
2021/01/07 00:23:32;;;;;;;;;;;0.70;99.90;;;;;;5052610;28;20388;-74
2021/01/07 00:25:58;;;;;;;;;;;0.70;99.90;;;;;;5052198;28;19913;-73
2021/01/07 00:28:24;;;;;;;;;;;0.70;99.90;;;;;;5052495;28;19915;-74
2021/01/07 00:30:50;;;;;;;;;;;0.80;99.90;;;;;;5050787;28;20007;-73
2021/01/07 00:33:16;;;;;;;;;;;0.80;99.90;;;;;;5052584;28;19959;-73
2021/01/07 00:35:41;;;;;;;;;;;0.80;99.90;;;;;;5052369;28;19913;-74
2021/01/07 00:38:07;;;;;;;;;;;0.80;99.90;;;;;;5052220;28;20273;-74
2021/01/07 00:40:33;;;;;;;;;;;0.80;99.90;;;;;;5052307;28;19913;-74
2021/01/07 00:42:59;;;;;;;;;;;0.80;99.90;;;;;;5052739;28;19909;-74
2021/01/07 00:45:24;;;;;;;;;;;0.80;99.90;;;;;;5050949;28;20334;-74
2021/01/07 00:47:50;;;;;;;;;;;0.80;99.90;;;;;;5051879;28;19909;-73
2021/01/07 00:50:15;;;;;;;;;;;0.80;99.90;;;;;;5052178;28;19916;-74
2021/01/07 00:52:41;;;;;;;;;;;0.80;99.90;;;;;;5050898;28;20002;-74
2021/01/07 00:55:07;;;;;;;;;;;0.80;99.90;;;;;;5050850;28;20266;-73
2021/01/07 00:57:32;;;;;;;;;;;0.80;99.90;;;;;;5051785;28;19920;-74
2021/01/07 00:59:58;;;;;;;;;;;0.80;99.90;;;;;;5051806;28;20191;-74
2021/01/07 01:02:23;;;;;;;;;;;0.80;99.90;;;;;;5052022;28;19908;-74
2021/01/07 01:04:49;;;;;;;;;;;0.80;99.90;;;;;;5052043;28;19996;-75
2021/01/07 01:07:15;;;;;;;;;;;0.80;99.90;;;;;;5051603;28;19909;-73
2021/01/07 01:09:40;;;;;;;;;;;0.80;99.90;;;;;;5051879;28;19909;-74
2021/01/07 01:12:06;;;;;;;;;;;0.80;99.90;;;;;;5051739;28;20016;-73
2021/01/07 01:14:31;;;;;;;;;;;0.90;99.90;;;;;;5066372;28;19913;-73
2021/01/07 01:16:57;;;;;;;;;;;0.80;99.90;;;;;;5070341;28;20427;-73
2021/01/07 01:19:22;;;;;;;;;;;0.80;99.90;;;;;;5071648;28;20003;-73
2021/01/07 01:21:51;;;;;;;;;;;0.80;99.90;;;;;;5069798;28;20292;-73
2021/01/07 01:24:17;;;;;;;;;;;0.80;99.90;;;;;;5059896;28;20003;-73
2021/01/07 01:26:42;;;;;;;;;;;0.80;99.90;;;;;;5057970;28;20356;-73
2021/01/07 01:29:08;;;;;;;;;;;0.80;99.90;;;;;;5054043;28;20007;-73
2021/01/07 01:31:39;;;;;;;;;;;0.70;99.90;;;;;;5051644;28;19917;-73
2021/01/07 01:34:08;;;;;;;;;;;0.70;99.90;;;;;;5054094;28;19913;-73
2021/01/07 01:36:33;;;;;;;;;;;0.70;99.90;;;;;;5066103;28;20361;-73
2021/01/07 01:38:59;;;;;;;;;;;0.70;99.90;;;;;;5071410;28;19915;-73
2021/01/07 01:41:24;;;;;;;;;;;0.70;99.90;;;;;;5068513;28;20339;-74
2021/01/07 01:43:50;;;;;;;;;;;0.70;99.90;;;;;;5075114;28;19912;-76
2021/01/07 01:46:15;;;;;;;;;;;0.70;99.90;;;;;;5074840;28;19926;-73
2021/01/07 01:48:41;;;;;;;;;;;0.60;99.90;;;;;;5075057;28;19912;-73
2021/01/07 01:51:07;;;;;;;;;;;0.60;99.90;;;;;;5075117;28;19958;-73
2021/01/07 01:53:33;;;;;;;;;;;0.60;99.90;;;;;;5074860;28;19916;-73
2021/01/07 01:56:02;;;;;;;;;;;0.60;99.90;;;;;;5074207;28;19909;-74
2021/01/07 01:58:29;;;;;;;;;;;0.60;99.90;;;;;;5074528;28;20007;-74
2021/01/07 02:00:54;;;;;;;;;;;0.60;99.90;;;;;;5074714;28;19919;-74
2021/01/07 02:03:20;;;;;;;;;;;0.60;99.90;;;;;;5074685;28;20343;-74
2021/01/07 02:05:45;;;;;;;;;;;0.70;99.90;;;;;;5073111;28;20350;-73
2021/01/07 02:08:12;;;;;;;;;;;0.70;99.90;;;;;;5074434;28;19948;-73
2021/01/07 02:10:38;;;;;;;;;;;0.70;99.90;;;;;;5074448;28;19916;-74
2021/01/07 02:13:04;;;;;;;;;;;0.70;99.90;;;;;;5074149;28;20002;-73
2021/01/07 02:15:29;;;;;;;;;;;0.60;99.90;;;;;;5074549;28;20288;-73
2021/01/07 02:17:56;;;;;;;;;;;0.60;99.90;;;;;;5074228;28;20296;-74
2021/01/07 02:20:23;;;;;;;;;;;0.60;99.90;;;;;;5074365;28;19981;-73
2021/01/07 02:22:55;;;;;;;;;;;0.60;99.90;;;;;;5074494;28;19909;-73
2021/01/07 02:25:22;;;;;;;;;;;0.70;99.90;;;;;;5074229;28;19909;-73
2021/01/07 02:27:47;;;;;;;;;;;0.60;99.90;;;;;;5073655;28;19909;-74
2021/01/07 02:30:13;;;;;;;;;;;0.50;99.90;;;;;;5073871;28;19923;-74
2021/01/07 02:32:39;;;;;;;;;;;0.50;99.90;;;;;;5074380;28;19970;-73
2021/01/07 02:35:05;;;;;;;;;;;0.50;99.90;;;;;;5074149;28;19955;-73
2021/01/07 02:37:30;;;;;;;;;;;0.50;99.90;;;;;;5075035;28;20008;-73
2021/01/07 02:39:56;;;;;;;;;;;0.50;99.90;;;;;;5070128;28;20004;-74
2021/01/07 02:42:24;;;;;;;;;;;0.50;99.90;;;;;;5054426;28;19909;-74
2021/01/07 02:44:49;;;;;;;;;;;0.50;99.90;;;;;;5054053;28;19928;-75
2021/01/07 02:47:15;;;;;;;;;;;0.50;99.90;;;;;;5052028;28;20287;-73
2021/01/07 02:49:41;;;;;;;;;;;0.50;99.90;;;;;;5052822;28;19909;-73
2021/01/07 02:52:06;;;;;;;;;;;0.40;99.90;;;;;;5053847;28;20262;-74
2021/01/07 02:54:31;;;;;;;;;;;0.40;99.90;;;;;;5052012;28;19908;-74
2021/01/07 02:56:57;;;;;;;;;;;0.40;99.90;;;;;;5053736;28;19909;-73
2021/01/07 02:59:22;;;;;;;;;;;0.40;99.90;;;;;;5052645;28;19917;-73
2021/01/07 03:01:48;;;;;;;;;;;0.40;99.90;;;;;;5054001;28;19909;-73
2021/01/07 03:04:13;;;;;;;;;;;0.40;99.90;;;;;;5053995;28;19962;-73
2021/01/07 03:06:39;;;;;;;;;;;0.40;99.90;;;;;;5053680;28;20392;-74
2021/01/07 03:09:04;;;;;;;;;;;0.40;99.90;;;;;;5053720;28;20054;-74
2021/01/07 03:11:30;;;;;;;;;;;0.40;99.90;;;;;;5053806;28;19908;-73
2021/01/07 03:13:55;;;;;;;;;;;0.30;99.90;;;;;;5053807;28;20387;-73
2021/01/07 03:16:21;;;;;;;;;;;0.30;99.90;;;;;;5053425;28;19935;-74
2021/01/07 03:18:46;;;;;;;;;;;0.40;99.90;;;;;;5053578;28;20003;-74
2021/01/07 03:21:12;;;;;;;;;;;0.40;99.90;;;;;;5053575;28;20345;-74
2021/01/07 03:23:37;;;;;;;;;;;0.40;99.90;;;;;;5053525;28;19909;-74
2021/01/07 03:26:03;;;;;;;;;;;0.40;99.90;;;;;;5053428;28;19913;-73
2021/01/07 03:28:28;;;;;;;;;;;0.40;99.90;;;;;;5053420;28;19915;-74
2021/01/07 03:30:54;;;;;;;;;;;0.40;99.90;;;;;;5053400;28;20015;-73
2021/01/07 03:33:20;;;;;;;;;;;0.40;99.90;;;;;;5053466;28;20361;-73
2021/01/07 03:35:45;;;;;;;;;;;0.30;99.90;;;;;;5053126;28;19909;-73
2021/01/07 03:38:11;;;;;;;;;;;0.40;99.90;;;;;;5051892;28;19963;-73
2021/01/07 03:40:36;;;;;;;;;;;0.40;99.90;;;;;;5053212;28;19919;-73
2021/01/07 03:43:02;;;;;;;;;;;0.40;99.90;;;;;;5053232;28;19910;-74
2021/01/07 03:45:27;;;;;;;;;;;0.40;99.90;;;;;;5053122;28;19909;-74
2021/01/07 03:47:54;;;;;;;;;;;0.40;99.90;;;;;;5052851;28;20050;-75
2021/01/07 03:50:19;;;;;;;;;;;0.30;99.90;;;;;;5053052;28;19913;-73
2021/01/07 03:52:45;;;;;;;;;;;0.30;99.90;;;;;;5052953;28;19916;-75
2021/01/07 03:55:10;;;;;;;;;;;0.40;99.90;;;;;;5053057;28;19916;-74
2021/01/07 03:57:36;;;;;;;;;;;0.30;99.90;;;;;;5052728;28;19963;-73
2021/01/07 04:00:03;;;;;;;;;;;0.30;99.90;;;;;;5052751;28;20382;-74
2021/01/07 04:02:28;;;;;;;;;;;0.30;99.90;;;;;;5052676;28;20374;-73
2021/01/07 04:04:54;;;;;;;;;;;0.40;99.90;;;;;;5052151;28;19915;-74
2021/01/07 04:07:19;;;;;;;;;;;0.40;99.90;;;;;;5052190;28;20343;-74
2021/01/07 04:09:45;;;;;;;;;;;0.40;99.90;;;;;;5052497;28;20007;-73
2021/01/07 04:12:10;;;;;;;;;;;0.40;99.90;;;;;;5052588;28;19931;-73
2021/01/07 04:14:35;;;;;;;;;;;0.50;99.90;;;;;;5052488;28;19912;-74
2021/01/07 04:17:01;;;;;;;;;;;0.50;99.90;;;;;;5052193;28;19916;-74
2021/01/07 04:19:27;;;;;;;;;;;0.50;99.90;;;;;;5050959;28;19916;-73
2021/01/07 04:21:52;;;;;;;;;;;0.50;99.90;;;;;;5052426;28;20281;-73
2021/01/07 04:24:17;;;;;;;;;;;0.50;99.90;;;;;;5052506;28;19909;-74
2021/01/07 04:26:43;;;;;;;;;;;0.50;99.90;;;;;;5051954;28;20286;-73
2021/01/07 04:29:09;;;;;;;;;;;0.50;99.90;;;;;;5052295;28;19916;-74
2021/01/07 04:31:35;;;;;;;;;;;0.50;99.90;;;;;;5052241;28;19917;-74
2021/01/07 04:34:00;;;;;;;;;;;0.50;99.90;;;;;;5052281;28;19916;-74
2021/01/07 04:36:26;;;;;;;;;;;0.50;99.90;;;;;;5051824;28;19971;-74
2021/01/07 04:38:52;;;;;;;;;;;0.50;99.90;;;;;;5052202;28;19961;-73
2021/01/07 04:41:17;;;;;;;;;;;0.50;99.90;;;;;;5052107;28;19913;-73
2021/01/07 04:43:43;;;;;;;;;;;0.50;99.90;;;;;;5052282;28;20000;-73
2021/01/07 04:46:08;;;;;;;;;;;0.50;99.90;;;;;;5051745;28;20385;-74
2021/01/07 04:48:34;;;;;;;;;;;0.50;99.90;;;;;;5051914;28;20000;-73
2021/01/07 04:51:00;;;;;;;;;;;0.40;99.90;;;;;;5051944;28;19963;-73
2021/01/07 04:53:25;;;;;;;;;;;0.40;99.90;;;;;;5051953;28;20362;-73
2021/01/07 04:55:51;;;;;;;;;;;0.40;99.90;;;;;;5050262;28;19909;-73
2021/01/07 04:58:16;;;;;;;;;;;0.40;99.90;;;;;;5051741;28;20361;-73
2021/01/07 05:00:42;;;;;;;;;;;0.40;99.90;;;;;;5051905;28;20088;-74
2021/01/07 05:03:07;;;;;;;;;;;0.30;99.90;;;;;;5051882;28;20401;-73
2021/01/07 05:05:33;;;;;;;;;;;0.30;99.90;;;;;;5051670;28;19916;-73
2021/01/07 05:08:01;;;;;;;;;;;0.30;99.90;;;;;;5051606;28;19932;-73
2021/01/07 05:10:28;;;;;;;;;;;0.30;99.90;;;;;;5051686;28;19913;-74
2021/01/07 05:12:53;;;;;;;;;;;0.30;99.90;;;;;;5051759;28;19909;-74
2021/01/07 05:15:19;;;;;;;;;;;0.30;99.90;;;;;;5051683;28;19909;-74
2021/01/07 05:17:44;;;;;;;;;;;0.30;99.90;;;;;;5050365;28;19916;-73
2021/01/07 05:20:11;;;;;;;;;;;0.30;99.90;;;;;;5051512;28;19939;-73
2021/01/07 05:22:40;;;;;;;;;;;0.30;99.90;;;;;;5051565;28;19912;-73
2021/01/07 05:25:08;;;;;;;;;;;0.30;99.90;;;;;;5051570;28;20274;-73
2021/01/07 05:27:34;;;;;;;;;;;0.30;99.90;;;;;;5051310;28;19908;-73
2021/01/07 05:30:00;;;;;;;;;;;0.30;99.90;;;;;;5051462;28;19913;-74
2021/01/07 05:32:39;;;;;;;;;;;0.30;99.90;;;;;;5051661;28;19909;-73
2021/01/07 05:35:06;;;;;;;;;;;0.30;99.90;;;;;;5050204;28;20357;-73
2021/01/07 05:37:38;;;;;;;;;;;0.30;99.90;;;;;;5051145;28;19940;-73
2021/01/07 05:40:05;;;;;;;;;;;0.30;99.90;;;;;;5051515;28;19913;-73
2021/01/07 05:42:35;;;;;;;;;;;0.30;99.90;;;;;;5051421;28;19976;-74
2021/01/07 05:45:03;;;;;;;;;;;0.30;99.90;;;;;;5050168;28;20354;-73
2021/01/07 05:47:29;;;;;;;;;;;0.30;99.90;;;;;;5050981;28;19913;-73
2021/01/07 05:49:55;;;;;;;;;;;0.40;99.90;;;;;;5051333;28;19915;-74
2021/01/07 05:52:22;;;;;;;;;;;0.40;99.90;;;;;;5051449;28;19913;-74
2021/01/07 05:54:49;;;;;;;;;;;0.40;99.90;;;;;;5051280;28;19913;-73
2021/01/07 05:57:17;;;;;;;;;;;0.40;99.90;;;;;;5050987;28;19909;-74
2021/01/07 05:59:42;;;;;;;;;;;0.40;99.90;;;;;;5051056;28;19913;-73
2021/01/07 06:02:08;;;;;;;;;;;0.30;99.90;;;;;;5051267;28;19917;-74
2021/01/07 06:04:34;;;;;;;;;;;0.40;99.90;;;;;;5051277;28;20293;-74
2021/01/07 06:07:00;;;;;;;;;;;0.30;99.90;;;;;;5050944;28;19916;-74
2021/01/07 06:09:29;;;;;;;;;;;0.30;99.90;;;;;;5051104;28;19916;-73
2021/01/07 06:11:59;;;;;;;;;;;0.30;99.90;;;;;;5051208;28;19962;-74
2021/01/07 06:14:25;;;;;;;;;;;0.30;99.90;;;;;;5051120;28;19916;-73
2021/01/07 06:16:52;;;;;;;;;;;0.30;99.90;;;;;;5050804;28;19908;-74
2021/01/07 06:19:34;;;;;;;;;;;0.30;99.90;;;;;;5050956;28;19992;-73
2021/01/07 06:22:00;;;;;;;;;;;0.30;99.90;;;;;;5051188;28;20156;-73
2021/01/07 06:24:28;;;;;;;;;;;0.40;99.90;;;;;;5051150;28;19916;-74
2021/01/07 06:26:53;;;;;;;;;;;0.40;99.90;;;;;;5050573;28;19916;-73
2021/01/07 06:29:19;;;;;;;;;;;0.40;99.90;;;;;;5053926;28;19909;-74
2021/01/07 06:31:52;;;;;;;;;;;0.40;99.90;;;;;;5054632;28;19971;-74
2021/01/07 06:34:24;;;;;;;;;;;0.50;99.90;;;;;;5054833;28;20384;-74
2021/01/07 06:36:50;;;;;;;;;;;0.50;99.90;;;;;;5053012;28;20339;-73
2021/01/07 06:39:19;;;;;;;;;;;0.60;99.90;;;;;;5054437;28;19934;-74
2021/01/07 06:41:51;;;;;;;;;;;0.60;99.90;;;;;;5054568;28;20339;-73
2021/01/07 06:44:18;;;;;;;;;;;0.50;99.90;;;;;;5054580;28;19956;-74
2021/01/07 06:46:47;;;;;;;;;;;0.50;99.90;;;;;;5054130;28;19916;-73
2021/01/07 06:49:16;;;;;;;;;;;0.50;99.90;;;;;;5054342;28;19909;-75
2021/01/07 06:51:46;;;;;;;;;;;0.50;99.90;;;;;;5054307;28;19912;-74
2021/01/07 06:54:12;;;;;;;;;;;0.50;99.90;;;;;;5054311;28;19909;-74
2021/01/07 06:56:40;;;;;;;;;;;0.50;99.90;;;;;;5052602;28;19996;-74
2021/01/07 06:59:07;;;;;;;;;;;0.50;99.90;;;;;;5054033;28;19908;-74
2021/01/07 07:01:33;;;;;;;;;;;0.50;99.90;;;;;;5054275;28;19909;-74
2021/01/07 07:04:02;;;;;;;;;;;0.50;99.90;;;;;;5054132;28;20398;-73
2021/01/07 07:06:28;;;;;;;;;;;0.60;99.90;;;;;;5053599;28;19915;-74
2021/01/07 07:08:54;;;;;;;;;;;0.60;99.90;;;;;;5053929;28;19909;-73
2021/01/07 07:11:30;;;;;;;;;;;0.60;99.90;;;;;;5054061;28;19935;-75
2021/01/07 07:13:57;;;;;;;;;;;0.60;99.90;;;;;;5053965;28;19912;-74
2021/01/07 07:16:23;;;;;;;;;;;0.60;99.90;;;;;;5053615;28;19935;-74
2021/01/07 07:18:54;;;;;;;;;;;0.60;99.90;;;;;;5052470;28;19909;-73
2021/01/07 07:21:24;;;;;;;;;;;0.60;99.90;;;;;;5053735;28;19970;-74
2021/01/07 07:23:50;;;;;;;;;;;0.60;99.90;;;;;;5053797;28;20305;-74
2021/01/07 07:26:32;;;;;;;;;;;0.60;99.90;;;;;;5053407;28;19913;-75
2021/01/07 07:29:00;;;;;;;;;;;0.60;99.90;;;;;;5052379;28;20243;-74
2021/01/07 07:31:48;;;;;;;;;;;0.60;99.90;;;;;;5053454;28;19917;-74
2021/01/07 07:34:15;;;;;;;;;;;0.60;99.90;;;;;;5047950;28;19909;-74
2021/01/07 07:36:40;;;;;;;;;;;0.60;99.90;;;;;;5053180;28;19909;-74
2021/01/07 07:39:07;;;;;;;;;;;0.60;99.90;;;;;;5052687;28;19920;-74
2021/01/07 07:41:43;;;;;;;;;;;0.60;99.90;;;;;;5053126;28;20409;-74
2021/01/07 07:44:09;;;;;;;;;;;0.60;99.90;;;;;;5053832;28;19956;-74
2021/01/07 07:46:35;;;;;;;;;;;0.60;99.90;;;;;;5053031;28;19949;-75
2021/01/07 07:49:01;;;;;;;;;;;0.60;99.90;;;;;;5051851;28;19909;-73
2021/01/07 07:51:27;;;;;;;;;;;0.60;99.90;;;;;;5053262;28;19913;-73
2021/01/07 07:54:03;;;;;;;;;;;0.70;99.90;;;;;;5051934;28;19916;-73
2021/01/07 07:56:28;;;;;;;;;;;0.70;99.90;;;;;;5052836;28;20281;-73
2021/01/07 07:58:57;;;;;;;;;;;0.80;99.90;;;;;;5053060;28;19908;-74
2021/01/07 08:01:32;;;;;;;;;;;0.80;99.90;;;;;;5051801;28;19935;-74
2021/01/07 08:03:58;;;;;;;;;;;0.80;99.90;;;;;;5053079;28;19909;-73
2021/01/07 08:06:23;;;;;;;;;;;0.80;99.90;;;;;;5051583;28;20285;-74
2021/01/07 08:08:49;;;;;;;;;;;0.90;99.90;;;;;;5051751;28;20011;-73
2021/01/07 08:11:19;;;;;;;;;;;0.90;99.90;;;;;;5052944;28;19909;-74
2021/01/07 08:13:44;;;;;;;;;;;0.90;99.90;;;;;;5052889;28;19908;-74
2021/01/07 08:16:18;;;;;;;;;;;0.90;99.90;;;;;;5052514;28;19963;-73
2021/01/07 08:18:43;;;;;;;;;;;1.00;99.90;;;;;;5051367;28;19909;-74
2021/01/07 08:21:09;;;;;;;;;;;1.00;99.90;;;;;;5052603;28;20003;-74
2021/01/07 08:23:35;;;;;;;;;;;1.10;99.90;;;;;;5052538;28;20334;-74
2021/01/07 08:26:02;;;;;;;;;;;1.10;99.90;;;;;;5052346;28;19908;-74
2021/01/07 08:28:27;;;;;;;;;;;1.10;99.90;;;;;;5051175;28;19912;-74
2021/01/07 08:30:58;;;;;;;;;;;1.20;99.90;;;;;;5052450;28;19923;-74
2021/01/07 08:33:24;;;;;;;;;;;1.20;99.90;;;;;;5052476;28;19909;-74
2021/01/07 08:35:51;;;;;;;;;;;1.20;99.90;;;;;;5052065;28;19916;-74
2021/01/07 08:38:27;;;;;;;;;;;1.20;99.90;;;;;;5050485;28;20003;-74
2021/01/07 08:41:11;;;;;;;;;;;1.20;99.90;;;;;;5051874;28;20389;-74
2021/01/07 08:43:37;;;;;;;;;;;1.30;99.90;;;;;;5052162;28;20370;-74
2021/01/07 08:46:15;;;;;;;;;;;1.20;99.90;;;;;;5050928;28;19920;-74
2021/01/07 08:48:40;;;;;;;;;;;1.20;99.90;;;;;;5050110;28;19913;-73
2021/01/07 08:51:19;;;;;;;;;;;1.30;99.90;;;;;;5051658;28;19937;-74
2021/01/07 08:53:51;;;;;;;;;;;1.30;99.90;;;;;;5051936;28;19916;-74
2021/01/07 08:56:36;;;;;;;;;;;1.40;99.90;;;;;;5050233;28;19946;-74
2021/01/07 08:59:17;;;;;;;;;;;1.40;99.90;;;;;;5052041;28;19920;-74
2021/01/07 09:01:43;;;;;;;;;;;1.40;99.90;;;;;;5051763;28;19913;-74
2021/01/07 09:04:22;;;;;;;;;;;1.40;99.90;;;;;;5051578;28;19909;-74
2021/01/07 09:06:59;;;;;;;;;;;1.40;99.90;;;;;;5051158;28;20262;-74
2021/01/07 09:09:25;;;;;;;;;;;1.40;99.90;;;;;;5051226;28;19908;-74
2021/01/07 09:12:06;;;;;;;;;;;1.40;99.90;;;;;;5051578;28;20419;-74
2021/01/07 09:14:41;;;;;;;;;;;1.50;99.90;;;;;;5050172;28;20409;-74
2021/01/07 09:17:07;;;;;;;;;;;1.50;99.90;;;;;;5051011;28;19912;-74
2021/01/07 09:19:33;;;;;;;;;;;1.50;99.90;;;;;;5049845;28;20027;-74
2021/01/07 09:22:02;;;;;;;;;;;1.50;99.90;;;;;;5051153;28;19951;-74
2021/01/07 09:24:31;;;;;;;;;;;1.50;99.90;;;;;;5049940;28;19915;-74
2021/01/07 09:27:03;;;;;;;;;;;1.50;99.90;;;;;;5050881;28;19912;-74
2021/01/07 09:29:29;;;;;;;;;;;1.50;99.90;;;;;;5051269;28;19909;-74
2021/01/07 09:31:54;;;;;;;;;;;1.50;99.90;;;;;;5051093;28;19940;-74
2021/01/07 09:34:20;;;;;;;;;;;1.60;99.90;;;;;;5066999;28;19909;-74
2021/01/07 09:36:45;;;;;;;;;;;1.60;99.90;;;;;;5050845;28;19916;-74
2021/01/07 09:39:11;;;;;;;;;;;1.70;99.90;;;;;;5051119;28;19909;-74
2021/01/07 09:41:36;;;;;;;;;;;1.70;99.90;;;;;;5051359;28;19919;-74
2021/01/07 09:44:02;;;;;;;;;;;1.80;99.90;;;;;;5051115;28;19955;-74
2021/01/07 09:46:27;;;;;;;;;;;1.80;99.90;;;;;;5050594;28;19996;-74
2021/01/07 09:48:52;;;;;;;;;;;1.80;99.90;;;;;;5050660;28;19912;-74
2021/01/07 09:51:18;;;;;;;;;;;1.90;99.90;;;;;;5049620;28;19993;-74
2021/01/07 09:53:43;;;;;;;;;;;1.90;99.90;;;;;;5050718;28;19908;-74
2021/01/07 09:56:09;;;;;;;;;;;2.00;99.90;;;;;;5049466;28;19908;-74
2021/01/07 09:58:34;;;;;;;;;;;2.10;99.90;;;;;;5051131;28;19913;-74
2021/01/07 10:01:00;;;;;;;;;;;2.20;99.90;;;;;;5050912;28;19913;-74
2021/01/07 10:03:25;;;;;;;;;;;2.30;99.90;;;;;;5052702;28;20281;-74
2021/01/07 10:05:51;;;;;;;;;;;2.30;99.90;;;;;;5054900;28;20384;-74
2021/01/07 10:08:16;;;;;;;;;;;2.40;99.90;;;;;;5054870;28;20432;-74
2021/01/07 10:10:42;;;;;;;;;;;2.50;99.90;;;;;;5054859;28;19952;-74
2021/01/07 10:13:08;;;;;;;;;;;2.50;99.90;;;;;;5054741;28;19908;-74
2021/01/07 10:15:33;;;;;;;;;;;2.60;99.90;;;;;;5064697;28;20002;-74
2021/01/07 10:17:59;;;;;;;;;;;2.60;99.90;;;;;;5073901;28;19934;-74
2021/01/07 10:20:24;;;;;;;;;;;2.70;99.90;;;;;;5068985;28;19917;-74
2021/01/07 10:22:51;;;;;;;;;;;2.80;99.90;;;;;;5079194;28;19954;-74
2021/01/07 10:25:17;;;;;;;;;;;2.80;99.90;;;;;;5074330;28;19913;-75
2021/01/07 10:27:42;;;;;;;;;;;2.90;99.90;;;;;;5074040;28;19915;-74
2021/01/07 10:30:08;;;;;;;;;;;2.90;99.90;;;;;;5074047;28;19956;-74
2021/01/07 10:32:34;;;;;;;;;;;2.90;99.90;;;;;;5072760;28;19963;-74
2021/01/07 10:35:00;;;;;;;;;;;2.90;99.90;;;;;;5074048;28;19947;-74
2021/01/07 10:37:26;;;;;;;;;;;3.00;99.90;;;;;;5073934;28;19909;-74
2021/01/07 10:39:53;;;;;;;;;;;3.10;99.90;;;;;;5067554;28;19913;-74
2021/01/07 10:42:19;;;;;;;;;;;3.20;99.90;;;;;;5067523;28;19915;-74
2021/01/07 10:44:46;;;;;;;;;;;3.30;99.90;;;;;;5073966;28;19995;-74
2021/01/07 10:47:12;;;;;;;;;;;3.30;99.90;;;;;;5072176;28;19909;-74
2021/01/07 10:49:38;;;;;;;;;;;3.40;99.90;;;;;;5072626;28;19966;-74
2021/01/07 10:52:03;;;;;;;;;;;3.50;99.90;;;;;;5073894;28;19908;-74
2021/01/07 10:54:35;;;;;;;;;;;3.50;99.90;;;;;;5073857;28;20055;-74
2021/01/07 10:57:03;;;;;;;;;;;3.50;99.90;;;;;;5073396;28;19909;-74
2021/01/07 10:59:29;;;;;;;;;;;3.60;99.90;;;;;;5073597;28;19908;-75
2021/01/07 11:02:17;;;;;;;;;;;3.60;99.90;;;;;;5073293;28;19915;-75
2021/01/07 11:04:52;;;;;;;;;;;3.60;99.90;;;;;;5068220;28;19909;-74
2021/01/07 11:07:25;;;;;;;;;;;3.70;99.90;;;;;;5073096;28;20334;-74
2021/01/07 11:09:53;;;;;;;;;;;3.80;99.90;;;;;;5073573;28;19909;-74
2021/01/07 11:12:23;;;;;;;;;;;3.80;99.90;;;;;;5073501;28;19908;-80
2021/01/07 11:14:59;;;;;;;;;;;3.90;99.90;;;;;;5073531;28;19913;-74
2021/01/07 11:17:25;;;;;;;;;;;3.90;99.90;;;;;;5071835;28;19908;-74
2021/01/07 11:19:52;;;;;;;;;;;4.00;99.90;;;;;;5073379;28;20290;-74
2021/01/07 11:22:26;;;;;;;;;;;4.00;99.90;;;;;;5073392;28;19955;-74
2021/01/07 11:24:51;;;;;;;;;;;3.90;99.90;;;;;;5066645;28;19909;-74
2021/01/07 11:27:17;;;;;;;;;;;3.90;99.90;;;;;;5072931;28;19915;-74
2021/01/07 11:29:43;;;;;;;;;;;3.80;99.90;;;;;;5073139;28;19978;-74
2021/01/07 11:32:09;;;;;;;;;;;3.80;99.90;;;;;;5072335;28;19920;-74
2021/01/07 11:34:34;;;;;;;;;;;3.90;99.90;;;;;;5072075;28;19916;-74
2021/01/07 11:37:08;;;;;;;;;;;3.90;99.90;;;;;;5072874;28;19915;-74
2021/01/07 11:39:52;;;;;;;;;;;3.90;99.90;;;;;;5061923;28;19932;-74
2021/01/07 11:42:38;;;;;;;;;;;3.90;99.90;;;;;;5068539;28;19919;-74
2021/01/07 11:45:25;;;;;;;;;;;4.00;99.90;;;;;;5041560;28;19909;-74
2021/01/07 11:47:55;;;;;;;;;;;4.00;99.90;;;;;;5059580;28;19909;-74
2021/01/07 11:50:23;;;;;;;;;;;4.00;99.90;;;;;;5072935;28;19909;-74
2021/01/07 11:52:50;;;;;;;;;;;4.00;99.90;;;;;;5072945;28;19940;-74
2021/01/07 11:55:16;;;;;;;;;;;4.00;99.90;;;;;;5071522;28;19909;-74
2021/01/07 11:57:42;;;;;;;;;;;4.00;99.90;;;;;;5072560;28;19938;-74
2021/01/07 12:00:12;;;;;;;;;;;4.00;99.90;;;;;;5072514;28;19916;-73
2021/01/07 12:02:39;;;;;;;;;;;4.00;99.90;;;;;;5065433;28;19908;-74
2021/01/07 12:05:05;;;;;;;;;;;4.10;99.90;;;;;;5072474;28;19909;-74
2021/01/07 12:07:44;;;;;;;;;;;4.10;99.90;;;;;;5072242;28;20350;-74
2021/01/07 12:10:09;;;;;;;;;;;4.10;99.90;;;;;;5072412;28;19909;-74
2021/01/07 12:12:37;;;;;;;;;;;4.10;99.90;;;;;;5072478;28;20266;-74
2021/01/07 12:15:03;;;;;;;;;;;4.10;99.90;;;;;;5071945;28;20015;-74
2021/01/07 12:17:28;;;;;;;;;;;4.10;99.90;;;;;;5072300;28;20392;-74
2021/01/07 12:19:58;;;;;;;;;;;4.10;99.90;;;;;;5070894;28;20011;-74
2021/01/07 12:22:23;;;;;;;;;;;4.10;99.90;;;;;;5072328;28;19954;-74
2021/01/07 12:24:51;;;;;;;;;;;4.10;99.90;;;;;;5072347;28;19913;-74
2021/01/07 12:27:17;;;;;;;;;;;4.10;99.90;;;;;;5071691;28;20153;-74
2021/01/07 12:29:42;;;;;;;;;;;4.00;99.90;;;;;;5071965;28;19916;-75
2021/01/07 12:32:25;;;;;;;;;;;4.00;99.90;;;;;;5079182;28;19919;-74
2021/01/07 12:35:03;;;;;;;;;;;4.00;99.90;;;;;;5065559;28;19919;-74
2021/01/07 12:37:30;;;;;;;;;;;3.90;99.90;;;;;;5071758;28;19913;-74
2021/01/07 12:40:07;;;;;;;;;;;3.90;99.90;;;;;;5071907;28;19913;-74
2021/01/07 12:42:42;;;;;;;;;;;3.80;99.90;;;;;;5072027;28;19909;-74
2021/01/07 12:45:12;;;;;;;;;;;3.80;99.90;;;;;;5070688;28;20365;-74
2021/01/07 12:47:38;;;;;;;;;;;3.80;99.90;;;;;;5071911;28;20396;-74
2021/01/07 12:50:04;;;;;;;;;;;3.80;99.90;;;;;;5070672;28;19909;-74
2021/01/07 12:52:30;;;;;;;;;;;3.70;99.90;;;;;;5071784;28;19935;-74
2021/01/07 12:54:56;;;;;;;;;;;3.60;99.90;;;;;;5071921;28;20373;-73
2021/01/07 12:57:24;;;;;;;;;;;3.50;99.90;;;;;;5071669;28;19908;-73
2021/01/07 13:00:03;;;;;;;;;;;3.50;99.90;;;;;;5071599;28;19963;-73
2021/01/07 13:02:45;;;;;;;;;;;3.40;99.90;;;;;;5073570;28;19909;-73
2021/01/07 13:05:20;;;;;;;;;;;3.40;99.90;;;;;;5092180;28;20360;-73
2021/01/07 13:07:46;;;;;;;;;;;3.40;99.90;;;;;;5091699;28;19908;-73
2021/01/07 13:10:12;;;;;;;;;;;3.40;99.90;;;;;;5090479;28;19948;-73
2021/01/07 13:12:41;;;;;;;;;;;3.40;99.90;;;;;;5080125;28;19913;-74
2021/01/07 13:15:08;;;;;;;;;;;3.40;99.90;;;;;;5071587;28;20320;-73
2021/01/07 13:17:35;;;;;;;;;;;3.30;99.90;;;;;;5071137;28;19909;-73
2021/01/07 13:20:00;;;;;;;;;;;3.30;99.90;;;;;;5071370;28;19952;-74
2021/01/07 13:22:26;;;;;;;;;;;3.30;99.90;;;;;;5071017;28;19919;-73
2021/01/07 13:24:52;;;;;;;;;;;3.40;99.90;;;;;;5071193;28;20014;-73
2021/01/07 13:27:18;;;;;;;;;;;3.30;99.90;;;;;;5067358;28;19939;-72
2021/01/07 13:29:44;;;;;;;;;;;3.30;99.90;;;;;;5063742;28;20280;-73
2021/01/07 13:32:10;;;;;;;;;;;3.30;99.90;;;;;;5072773;28;20022;-73
2021/01/07 13:34:35;;;;;;;;;;;3.30;99.90;;;;;;5071525;28;19912;-74
2021/01/07 13:37:01;;;;;;;;;;;3.40;99.90;;;;;;5070495;28;20345;-73
2021/01/07 13:39:28;;;;;;;;;;;3.40;99.90;;;;;;5075004;28;20293;-73
2021/01/07 13:41:53;;;;;;;;;;;3.40;99.90;;;;;;5075493;28;19915;-74
2021/01/07 13:44:20;;;;;;;;;;;3.40;99.90;;;;;;5075367;28;19908;-74
2021/01/07 13:46:47;;;;;;;;;;;3.30;99.90;;;;;;5073680;28;19912;-74
2021/01/07 13:49:14;;;;;;;;;;;3.20;99.90;;;;;;5075036;28;19909;-74
2021/01/07 13:51:53;;;;;;;;;;;3.20;99.90;;;;;;5072743;28;19920;-73
2021/01/07 13:54:20;;;;;;;;;;;3.20;99.90;;;;;;5055142;28;19916;-74
2021/01/07 13:56:46;;;;;;;;;;;3.20;99.90;;;;;;5065476;28;19982;-74
2021/01/07 13:59:12;;;;;;;;;;;3.20;99.90;;;;;;5075033;28;19908;-74
2021/01/07 14:01:38;;;;;;;;;;;3.10;99.90;;;;;;5074811;28;20352;-74
2021/01/07 14:04:03;;;;;;;;;;;3.10;99.90;;;;;;5075054;28;19915;-73
2021/01/07 14:06:29;;;;;;;;;;;3.10;99.90;;;;;;5074841;28;19908;-73
2021/01/07 14:09:07;;;;;;;;;;;3.00;99.90;;;;;;5074834;28;19958;-74
2021/01/07 14:11:34;;;;;;;;;;;2.90;99.90;;;;;;5073178;28;19908;-74
2021/01/07 14:14:03;;;;;;;;;;;2.90;99.90;;;;;;5074653;28;19915;-74
2021/01/07 14:16:28;;;;;;;;;;;2.90;99.90;;;;;;5073535;28;19909;-74
2021/01/07 14:18:54;;;;;;;;;;;2.90;99.90;;;;;;5074677;28;20281;-74
2021/01/07 14:21:19;;;;;;;;;;;2.90;99.90;;;;;;5074533;28;20019;-74
2021/01/07 14:23:45;;;;;;;;;;;2.90;99.90;;;;;;5083973;28;19908;-74
2021/01/07 14:26:11;;;;;;;;;;;2.80;99.90;;;;;;5094682;28;19912;-74
2021/01/07 14:28:46;;;;;;;;;;;2.80;99.90;;;;;;5076575;28;19909;-74
2021/01/07 14:31:11;;;;;;;;;;;2.80;99.90;;;;;;5064878;28;19977;-74
2021/01/07 14:33:39;;;;;;;;;;;2.70;99.90;;;;;;5080045;28;20007;-74